sensor_id;sensor_type;location;lat;lon;timestamp;P1;durP1;ratioP1;P2;durP2;ratioP2
61897;SDS011;47850;50.274;18.908;2022-12-07T00:01:32;23.00;;;11.50;;
61897;SDS011;47850;50.274;18.908;2022-12-07T00:03:59;30.20;;;13.80;;
61897;SDS011;47850;50.274;18.908;2022-12-07T00:06:39;18.70;;;9.90;;
61897;SDS011;47850;50.274;18.908;2022-12-07T00:09:07;23.50;;;11.90;;
61897;SDS011;47850;50.274;18.908;2022-12-07T00:11:35;21.40;;;10.20;;
61897;SDS011;47850;50.274;18.908;2022-12-07T00:14:01;25.20;;;12.50;;
61897;SDS011;47850;50.274;18.908;2022-12-07T00:16:30;31.30;;;14.80;;
61897;SDS011;47850;50.274;18.908;2022-12-07T00:18:58;31.20;;;15.10;;
61897;SDS011;47850;50.274;18.908;2022-12-07T00:21:25;37.70;;;18.40;;
61897;SDS011;47850;50.274;18.908;2022-12-07T00:23:55;23.30;;;10.30;;
61897;SDS011;47850;50.274;18.908;2022-12-07T00:26:22;23.00;;;10.80;;
61897;SDS011;47850;50.274;18.908;2022-12-07T00:28:50;28.70;;;13.70;;
61897;SDS011;47850;50.274;18.908;2022-12-07T00:31:18;13.20;;;6.80;;
61897;SDS011;47850;50.274;18.908;2022-12-07T00:33:45;19.80;;;9.80;;
61897;SDS011;47850;50.274;18.908;2022-12-07T00:36:13;23.80;;;12.30;;
61897;SDS011;47850;50.274;18.908;2022-12-07T00:38:44;24.80;;;10.80;;
61897;SDS011;47850;50.274;18.908;2022-12-07T00:41:16;24.60;;;10.80;;
61897;SDS011;47850;50.274;18.908;2022-12-07T00:43:45;31.90;;;13.20;;
61897;SDS011;47850;50.274;18.908;2022-12-07T00:46:12;25.70;;;12.70;;
61897;SDS011;47850;50.274;18.908;2022-12-07T00:48:38;26.90;;;12.30;;
61897;SDS011;47850;50.274;18.908;2022-12-07T00:51:04;27.00;;;11.40;;
61897;SDS011;47850;50.274;18.908;2022-12-07T00:53:31;25.40;;;12.50;;
61897;SDS011;47850;50.274;18.908;2022-12-07T00:56:04;29.90;;;11.20;;
61897;SDS011;47850;50.274;18.908;2022-12-07T00:58:33;30.60;;;12.20;;
61897;SDS011;47850;50.274;18.908;2022-12-07T01:00:59;31.50;;;15.10;;
61897;SDS011;47850;50.274;18.908;2022-12-07T01:03:26;22.90;;;8.90;;
61897;SDS011;47850;50.274;18.908;2022-12-07T01:05:52;28.30;;;13.80;;
61897;SDS011;47850;50.274;18.908;2022-12-07T01:08:20;28.40;;;14.20;;
61897;SDS011;47850;50.274;18.908;2022-12-07T01:10:46;33.80;;;15.90;;
61897;SDS011;47850;50.274;18.908;2022-12-07T01:13:12;29.90;;;15.00;;
61897;SDS011;47850;50.274;18.908;2022-12-07T01:15:41;22.10;;;11.10;;
61897;SDS011;47850;50.274;18.908;2022-12-07T01:18:08;28.80;;;14.70;;
61897;SDS011;47850;50.274;18.908;2022-12-07T01:20:34;30.10;;;13.70;;
61897;SDS011;47850;50.274;18.908;2022-12-07T01:23:00;30.00;;;13.60;;
61897;SDS011;47850;50.274;18.908;2022-12-07T01:25:26;32.90;;;14.40;;
61897;SDS011;47850;50.274;18.908;2022-12-07T01:27:51;25.10;;;12.60;;
61897;SDS011;47850;50.274;18.908;2022-12-07T01:30:16;31.50;;;14.80;;
61897;SDS011;47850;50.274;18.908;2022-12-07T01:32:42;33.90;;;14.90;;
61897;SDS011;47850;50.274;18.908;2022-12-07T01:35:07;30.10;;;15.90;;
61897;SDS011;47850;50.274;18.908;2022-12-07T01:37:34;33.00;;;16.00;;
61897;SDS011;47850;50.274;18.908;2022-12-07T01:40:01;25.30;;;11.90;;
61897;SDS011;47850;50.274;18.908;2022-12-07T01:42:27;35.00;;;15.70;;
61897;SDS011;47850;50.274;18.908;2022-12-07T01:47:41;38.80;;;17.50;;
61897;SDS011;47850;50.274;18.908;2022-12-07T01:50:08;36.60;;;18.20;;
61897;SDS011;47850;50.274;18.908;2022-12-07T01:52:34;40.80;;;19.80;;
61897;SDS011;47850;50.274;18.908;2022-12-07T01:55:09;47.10;;;20.40;;
61897;SDS011;47850;50.274;18.908;2022-12-07T01:57:42;30.30;;;14.90;;
61897;SDS011;47850;50.274;18.908;2022-12-07T02:00:12;38.40;;;18.50;;
61897;SDS011;47850;50.274;18.908;2022-12-07T02:02:39;36.50;;;17.40;;
61897;SDS011;47850;50.274;18.908;2022-12-07T02:05:10;35.60;;;15.70;;
61897;SDS011;47850;50.274;18.908;2022-12-07T02:07:37;39.90;;;19.50;;
61897;SDS011;47850;50.274;18.908;2022-12-07T02:10:18;49.20;;;20.00;;
61897;SDS011;47850;50.274;18.908;2022-12-07T02:12:46;30.80;;;15.10;;
61897;SDS011;47850;50.274;18.908;2022-12-07T02:15:15;45.40;;;18.90;;
61897;SDS011;47850;50.274;18.908;2022-12-07T02:17:48;37.90;;;17.70;;
61897;SDS011;47850;50.274;18.908;2022-12-07T02:23:04;37.40;;;18.10;;
61897;SDS011;47850;50.274;18.908;2022-12-07T02:28:23;46.30;;;20.60;;
61897;SDS011;47850;50.274;18.908;2022-12-07T02:30:50;30.50;;;14.70;;
61897;SDS011;47850;50.274;18.908;2022-12-07T02:33:23;23.50;;;12.40;;
61897;SDS011;47850;50.274;18.908;2022-12-07T02:35:59;35.80;;;17.10;;
61897;SDS011;47850;50.274;18.908;2022-12-07T02:41:37;27.20;;;12.70;;
61897;SDS011;47850;50.274;18.908;2022-12-07T02:44:08;28.00;;;14.00;;
61897;SDS011;47850;50.274;18.908;2022-12-07T02:49:24;29.90;;;12.80;;
61897;SDS011;47850;50.274;18.908;2022-12-07T02:51:52;26.60;;;12.80;;
61897;SDS011;47850;50.274;18.908;2022-12-07T02:54:19;37.10;;;16.90;;
61897;SDS011;47850;50.274;18.908;2022-12-07T02:57:04;36.60;;;17.30;;
61897;SDS011;47850;50.274;18.908;2022-12-07T03:12:57;44.70;;;20.50;;
61897;SDS011;47850;50.274;18.908;2022-12-07T03:18:24;48.40;;;21.20;;
61897;SDS011;47850;50.274;18.908;2022-12-07T03:20:55;36.80;;;17.90;;
61897;SDS011;47850;50.274;18.908;2022-12-07T03:23:26;48.90;;;21.70;;
61897;SDS011;47850;50.274;18.908;2022-12-07T03:25:54;23.70;;;11.30;;
61897;SDS011;47850;50.274;18.908;2022-12-07T03:28:23;29.70;;;14.70;;
61897;SDS011;47850;50.274;18.908;2022-12-07T03:30:59;35.30;;;17.70;;
61897;SDS011;47850;50.274;18.908;2022-12-07T03:33:36;49.00;;;21.30;;
61897;SDS011;47850;50.274;18.908;2022-12-07T03:36:18;38.70;;;16.90;;
61897;SDS011;47850;50.274;18.908;2022-12-07T03:41:50;28.20;;;13.00;;
61897;SDS011;47850;50.274;18.908;2022-12-07T03:44:17;35.80;;;17.90;;
61897;SDS011;47850;50.274;18.908;2022-12-07T03:47:19;46.00;;;19.40;;
61897;SDS011;47850;50.274;18.908;2022-12-07T03:50:07;31.50;;;15.80;;
61897;SDS011;47850;50.274;18.908;2022-12-07T03:52:41;35.80;;;18.20;;
61897;SDS011;47850;50.274;18.908;2022-12-07T03:57:49;25.30;;;11.60;;
61897;SDS011;47850;50.274;18.908;2022-12-07T04:00:18;35.00;;;16.00;;
61897;SDS011;47850;50.274;18.908;2022-12-07T04:02:44;45.00;;;21.70;;
61897;SDS011;47850;50.274;18.908;2022-12-07T04:05:10;40.70;;;20.00;;
61897;SDS011;47850;50.274;18.908;2022-12-07T04:07:36;41.40;;;19.60;;
61897;SDS011;47850;50.274;18.908;2022-12-07T04:10:02;40.80;;;20.80;;
61897;SDS011;47850;50.274;18.908;2022-12-07T04:12:29;40.10;;;18.30;;
61897;SDS011;47850;50.274;18.908;2022-12-07T04:14:54;37.90;;;18.60;;
61897;SDS011;47850;50.274;18.908;2022-12-07T04:17:20;34.40;;;16.90;;
61897;SDS011;47850;50.274;18.908;2022-12-07T04:19:45;36.00;;;16.30;;
61897;SDS011;47850;50.274;18.908;2022-12-07T04:22:11;32.20;;;17.80;;
61897;SDS011;47850;50.274;18.908;2022-12-07T04:24:36;25.60;;;12.90;;
61897;SDS011;47850;50.274;18.908;2022-12-07T04:27:02;34.50;;;17.00;;
61897;SDS011;47850;50.274;18.908;2022-12-07T04:29:27;33.20;;;14.00;;
61897;SDS011;47850;50.274;18.908;2022-12-07T04:31:53;27.10;;;14.00;;
61897;SDS011;47850;50.274;18.908;2022-12-07T04:34:19;27.60;;;13.80;;
61897;SDS011;47850;50.274;18.908;2022-12-07T04:36:45;23.80;;;12.40;;
61897;SDS011;47850;50.274;18.908;2022-12-07T04:39:22;30.50;;;15.40;;
61897;SDS011;47850;50.274;18.908;2022-12-07T04:41:50;31.50;;;16.40;;
61897;SDS011;47850;50.274;18.908;2022-12-07T04:44:16;25.30;;;14.00;;
61897;SDS011;47850;50.274;18.908;2022-12-07T04:46:43;27.50;;;14.60;;
61897;SDS011;47850;50.274;18.908;2022-12-07T04:49:09;28.80;;;12.20;;
61897;SDS011;47850;50.274;18.908;2022-12-07T04:51:35;29.10;;;15.10;;
61897;SDS011;47850;50.274;18.908;2022-12-07T04:54:01;33.30;;;16.30;;
61897;SDS011;47850;50.274;18.908;2022-12-07T04:56:26;30.80;;;15.20;;
61897;SDS011;47850;50.274;18.908;2022-12-07T04:58:52;30.10;;;15.40;;
61897;SDS011;47850;50.274;18.908;2022-12-07T05:01:19;38.50;;;17.80;;
61897;SDS011;47850;50.274;18.908;2022-12-07T05:03:45;20.70;;;10.20;;
61897;SDS011;47850;50.274;18.908;2022-12-07T05:06:11;29.90;;;13.20;;
61897;SDS011;47850;50.274;18.908;2022-12-07T05:08:37;41.60;;;15.50;;
61897;SDS011;47850;50.274;18.908;2022-12-07T05:11:03;40.80;;;18.60;;
61897;SDS011;47850;50.274;18.908;2022-12-07T05:13:31;25.00;;;10.70;;
61897;SDS011;47850;50.274;18.908;2022-12-07T05:15:57;43.40;;;18.10;;
61897;SDS011;47850;50.274;18.908;2022-12-07T05:18:23;30.30;;;13.20;;
61897;SDS011;47850;50.274;18.908;2022-12-07T05:20:48;46.30;;;20.30;;
61897;SDS011;47850;50.274;18.908;2022-12-07T05:23:14;40.10;;;17.70;;
61897;SDS011;47850;50.274;18.908;2022-12-07T05:25:40;44.70;;;18.70;;
61897;SDS011;47850;50.274;18.908;2022-12-07T05:28:05;47.50;;;19.90;;
61897;SDS011;47850;50.274;18.908;2022-12-07T05:30:31;28.80;;;14.30;;
61897;SDS011;47850;50.274;18.908;2022-12-07T05:32:57;32.10;;;16.20;;
61897;SDS011;47850;50.274;18.908;2022-12-07T05:35:23;36.80;;;15.60;;
61897;SDS011;47850;50.274;18.908;2022-12-07T05:37:49;26.30;;;12.90;;
61897;SDS011;47850;50.274;18.908;2022-12-07T05:40:14;19.90;;;10.20;;
61897;SDS011;47850;50.274;18.908;2022-12-07T05:42:41;40.10;;;19.40;;
61897;SDS011;47850;50.274;18.908;2022-12-07T05:45:07;35.30;;;17.80;;
61897;SDS011;47850;50.274;18.908;2022-12-07T05:47:34;36.10;;;16.90;;
61897;SDS011;47850;50.274;18.908;2022-12-07T05:50:00;29.20;;;14.60;;
61897;SDS011;47850;50.274;18.908;2022-12-07T05:52:26;37.70;;;17.30;;
61897;SDS011;47850;50.274;18.908;2022-12-07T05:54:52;26.60;;;13.30;;
61897;SDS011;47850;50.274;18.908;2022-12-07T05:57:17;26.40;;;12.60;;
61897;SDS011;47850;50.274;18.908;2022-12-07T05:59:43;35.10;;;16.10;;
61897;SDS011;47850;50.274;18.908;2022-12-07T06:02:13;26.50;;;12.80;;
61897;SDS011;47850;50.274;18.908;2022-12-07T06:04:41;23.10;;;11.60;;
61897;SDS011;47850;50.274;18.908;2022-12-07T06:07:11;29.00;;;13.10;;
61897;SDS011;47850;50.274;18.908;2022-12-07T06:09:38;32.10;;;14.60;;
61897;SDS011;47850;50.274;18.908;2022-12-07T06:12:04;24.20;;;12.50;;
61897;SDS011;47850;50.274;18.908;2022-12-07T06:14:49;28.30;;;12.80;;
61897;SDS011;47850;50.274;18.908;2022-12-07T06:17:15;33.70;;;15.60;;
61897;SDS011;47850;50.274;18.908;2022-12-07T06:19:41;31.10;;;14.80;;
61897;SDS011;47850;50.274;18.908;2022-12-07T06:22:07;27.40;;;11.80;;
61897;SDS011;47850;50.274;18.908;2022-12-07T06:24:34;31.00;;;14.60;;
61897;SDS011;47850;50.274;18.908;2022-12-07T06:27:00;26.30;;;11.90;;
61897;SDS011;47850;50.274;18.908;2022-12-07T06:29:26;26.10;;;12.40;;
61897;SDS011;47850;50.274;18.908;2022-12-07T06:31:52;21.20;;;9.30;;
61897;SDS011;47850;50.274;18.908;2022-12-07T06:34:18;23.60;;;12.00;;
61897;SDS011;47850;50.274;18.908;2022-12-07T06:36:45;22.10;;;10.40;;
61897;SDS011;47850;50.274;18.908;2022-12-07T06:39:16;25.60;;;13.10;;
61897;SDS011;47850;50.274;18.908;2022-12-07T06:41:42;22.40;;;11.60;;
61897;SDS011;47850;50.274;18.908;2022-12-07T06:44:07;24.90;;;11.20;;
61897;SDS011;47850;50.274;18.908;2022-12-07T06:46:33;24.80;;;12.20;;
61897;SDS011;47850;50.274;18.908;2022-12-07T06:49:00;27.10;;;14.10;;
61897;SDS011;47850;50.274;18.908;2022-12-07T06:51:26;27.00;;;13.40;;
61897;SDS011;47850;50.274;18.908;2022-12-07T06:53:51;20.00;;;10.10;;
61897;SDS011;47850;50.274;18.908;2022-12-07T06:56:17;14.90;;;7.80;;
61897;SDS011;47850;50.274;18.908;2022-12-07T06:58:42;27.30;;;13.40;;
61897;SDS011;47850;50.274;18.908;2022-12-07T07:01:09;28.30;;;12.90;;
61897;SDS011;47850;50.274;18.908;2022-12-07T07:03:35;30.40;;;16.10;;
61897;SDS011;47850;50.274;18.908;2022-12-07T07:06:00;28.10;;;15.00;;
61897;SDS011;47850;50.274;18.908;2022-12-07T07:08:26;24.30;;;10.40;;
61897;SDS011;47850;50.274;18.908;2022-12-07T07:10:51;27.30;;;14.10;;
61897;SDS011;47850;50.274;18.908;2022-12-07T07:13:17;29.90;;;15.10;;
61897;SDS011;47850;50.274;18.908;2022-12-07T07:15:42;15.20;;;8.30;;
61897;SDS011;47850;50.274;18.908;2022-12-07T07:18:08;22.70;;;12.10;;
61897;SDS011;47850;50.274;18.908;2022-12-07T07:20:33;27.90;;;13.50;;
61897;SDS011;47850;50.274;18.908;2022-12-07T07:22:59;20.80;;;10.00;;
61897;SDS011;47850;50.274;18.908;2022-12-07T07:25:24;28.10;;;14.40;;
61897;SDS011;47850;50.274;18.908;2022-12-07T07:27:50;28.20;;;14.20;;
61897;SDS011;47850;50.274;18.908;2022-12-07T07:30:15;25.80;;;13.80;;
61897;SDS011;47850;50.274;18.908;2022-12-07T07:32:41;24.50;;;12.20;;
61897;SDS011;47850;50.274;18.908;2022-12-07T07:35:06;31.90;;;14.40;;
61897;SDS011;47850;50.274;18.908;2022-12-07T07:37:32;23.40;;;11.80;;
61897;SDS011;47850;50.274;18.908;2022-12-07T07:39:57;32.60;;;18.00;;
61897;SDS011;47850;50.274;18.908;2022-12-07T07:42:23;27.00;;;14.80;;
61897;SDS011;47850;50.274;18.908;2022-12-07T07:44:48;28.00;;;15.20;;
61897;SDS011;47850;50.274;18.908;2022-12-07T07:47:13;23.70;;;12.40;;
61897;SDS011;47850;50.274;18.908;2022-12-07T07:49:39;36.40;;;18.30;;
61897;SDS011;47850;50.274;18.908;2022-12-07T07:52:05;30.90;;;16.20;;
61897;SDS011;47850;50.274;18.908;2022-12-07T07:54:31;22.60;;;10.60;;
61897;SDS011;47850;50.274;18.908;2022-12-07T07:56:57;32.10;;;16.90;;
61897;SDS011;47850;50.274;18.908;2022-12-07T07:59:22;41.20;;;20.40;;
61897;SDS011;47850;50.274;18.908;2022-12-07T08:01:48;35.70;;;18.70;;
61897;SDS011;47850;50.274;18.908;2022-12-07T08:04:14;37.40;;;18.50;;
61897;SDS011;47850;50.274;18.908;2022-12-07T08:06:39;25.30;;;13.40;;
61897;SDS011;47850;50.274;18.908;2022-12-07T08:09:07;33.00;;;17.70;;
61897;SDS011;47850;50.274;18.908;2022-12-07T08:11:33;28.50;;;16.20;;
61897;SDS011;47850;50.274;18.908;2022-12-07T08:13:59;40.00;;;18.50;;
61897;SDS011;47850;50.274;18.908;2022-12-07T08:16:25;33.10;;;17.70;;
61897;SDS011;47850;50.274;18.908;2022-12-07T08:18:51;30.40;;;15.90;;
61897;SDS011;47850;50.274;18.908;2022-12-07T08:21:16;32.30;;;17.40;;
61897;SDS011;47850;50.274;18.908;2022-12-07T08:23:42;34.20;;;18.50;;
61897;SDS011;47850;50.274;18.908;2022-12-07T08:26:09;35.80;;;17.60;;
61897;SDS011;47850;50.274;18.908;2022-12-07T08:28:36;32.40;;;16.10;;
61897;SDS011;47850;50.274;18.908;2022-12-07T08:31:03;28.20;;;15.00;;
61897;SDS011;47850;50.274;18.908;2022-12-07T08:33:31;29.80;;;15.40;;
61897;SDS011;47850;50.274;18.908;2022-12-07T08:36:10;23.30;;;13.20;;
61897;SDS011;47850;50.274;18.908;2022-12-07T08:38:37;31.20;;;15.30;;
61897;SDS011;47850;50.274;18.908;2022-12-07T08:41:04;30.80;;;15.80;;
61897;SDS011;47850;50.274;18.908;2022-12-07T08:43:30;35.10;;;17.00;;
61897;SDS011;47850;50.274;18.908;2022-12-07T08:46:09;26.50;;;13.30;;
61897;SDS011;47850;50.274;18.908;2022-12-07T08:49:15;27.70;;;13.30;;
61897;SDS011;47850;50.274;18.908;2022-12-07T08:51:44;25.90;;;12.60;;
61897;SDS011;47850;50.274;18.908;2022-12-07T08:54:11;21.20;;;11.50;;
61897;SDS011;47850;50.274;18.908;2022-12-07T08:56:39;19.80;;;9.50;;
61897;SDS011;47850;50.274;18.908;2022-12-07T08:59:06;22.90;;;10.90;;
61897;SDS011;47850;50.274;18.908;2022-12-07T09:01:32;21.30;;;11.20;;
61897;SDS011;47850;50.274;18.908;2022-12-07T09:03:58;22.00;;;12.00;;
61897;SDS011;47850;50.274;18.908;2022-12-07T09:06:23;23.30;;;12.00;;
61897;SDS011;47850;50.274;18.908;2022-12-07T09:08:50;18.20;;;9.50;;
61897;SDS011;47850;50.274;18.908;2022-12-07T09:11:20;23.20;;;11.50;;
61897;SDS011;47850;50.274;18.908;2022-12-07T09:13:45;27.80;;;12.90;;
61897;SDS011;47850;50.274;18.908;2022-12-07T09:16:11;29.50;;;15.30;;
61897;SDS011;47850;50.274;18.908;2022-12-07T09:18:37;25.20;;;12.50;;
61897;SDS011;47850;50.274;18.908;2022-12-07T09:21:03;24.60;;;12.90;;
61897;SDS011;47850;50.274;18.908;2022-12-07T09:23:29;22.50;;;10.60;;
61897;SDS011;47850;50.274;18.908;2022-12-07T09:25:58;19.80;;;10.50;;
61897;SDS011;47850;50.274;18.908;2022-12-07T09:28:25;27.90;;;12.80;;
61897;SDS011;47850;50.274;18.908;2022-12-07T09:30:50;26.40;;;12.70;;
61897;SDS011;47850;50.274;18.908;2022-12-07T09:33:16;26.10;;;13.80;;
61897;SDS011;47850;50.274;18.908;2022-12-07T09:35:48;24.60;;;11.60;;
61897;SDS011;47850;50.274;18.908;2022-12-07T09:38:14;30.00;;;15.70;;
61897;SDS011;47850;50.274;18.908;2022-12-07T09:40:40;21.00;;;9.70;;
61897;SDS011;47850;50.274;18.908;2022-12-07T09:43:18;26.20;;;11.90;;
61897;SDS011;47850;50.274;18.908;2022-12-07T09:45:47;27.50;;;13.80;;
61897;SDS011;47850;50.274;18.908;2022-12-07T09:48:16;27.50;;;15.50;;
61897;SDS011;47850;50.274;18.908;2022-12-07T09:50:45;28.80;;;14.80;;
61897;SDS011;47850;50.274;18.908;2022-12-07T09:53:14;29.80;;;15.70;;
61897;SDS011;47850;50.274;18.908;2022-12-07T09:55:47;27.20;;;13.40;;
61897;SDS011;47850;50.274;18.908;2022-12-07T09:58:17;30.30;;;17.70;;
61897;SDS011;47850;50.274;18.908;2022-12-07T10:00:46;32.10;;;16.50;;
61897;SDS011;47850;50.274;18.908;2022-12-07T10:03:11;26.40;;;14.50;;
61897;SDS011;47850;50.274;18.908;2022-12-07T10:05:42;34.70;;;18.60;;
61897;SDS011;47850;50.274;18.908;2022-12-07T10:08:11;31.10;;;15.80;;
61897;SDS011;47850;50.274;18.908;2022-12-07T10:10:38;32.00;;;17.70;;
61897;SDS011;47850;50.274;18.908;2022-12-07T10:13:15;32.10;;;17.60;;
61897;SDS011;47850;50.274;18.908;2022-12-07T10:15:52;33.00;;;17.50;;
61897;SDS011;47850;50.274;18.908;2022-12-07T10:21:12;28.60;;;15.50;;
61897;SDS011;47850;50.274;18.908;2022-12-07T10:23:39;26.80;;;15.10;;
61897;SDS011;47850;50.274;18.908;2022-12-07T10:26:19;28.80;;;16.60;;
61897;SDS011;47850;50.274;18.908;2022-12-07T10:29:15;36.00;;;19.60;;
61897;SDS011;47850;50.274;18.908;2022-12-07T10:31:57;24.10;;;15.00;;
61897;SDS011;47850;50.274;18.908;2022-12-07T10:34:35;31.20;;;16.80;;
61897;SDS011;47850;50.274;18.908;2022-12-07T10:42:30;20.60;;;12.20;;
61897;SDS011;47850;50.274;18.908;2022-12-07T10:45:16;26.30;;;13.80;;
61897;SDS011;47850;50.274;18.908;2022-12-07T10:47:44;23.80;;;13.40;;
61897;SDS011;47850;50.274;18.908;2022-12-07T10:50:56;20.10;;;10.50;;
61897;SDS011;47850;50.274;18.908;2022-12-07T10:53:56;20.20;;;11.00;;
61897;SDS011;47850;50.274;18.908;2022-12-07T10:56:36;19.30;;;11.30;;
61897;SDS011;47850;50.274;18.908;2022-12-07T11:04:50;27.50;;;10.60;;
61897;SDS011;47850;50.274;18.908;2022-12-07T11:15:24;20.10;;;8.80;;
61897;SDS011;47850;50.274;18.908;2022-12-07T11:20:44;19.80;;;11.00;;
61897;SDS011;47850;50.274;18.908;2022-12-07T11:37:21;19.20;;;7.50;;
61897;SDS011;47850;50.274;18.908;2022-12-07T11:40:00;13.00;;;7.60;;
61897;SDS011;47850;50.274;18.908;2022-12-07T11:42:31;11.70;;;7.00;;
61897;SDS011;47850;50.274;18.908;2022-12-07T11:45:10;14.10;;;6.50;;
61897;SDS011;47850;50.274;18.908;2022-12-07T11:47:47;16.20;;;9.00;;
61897;SDS011;47850;50.274;18.908;2022-12-07T11:50:33;12.80;;;6.40;;
61897;SDS011;47850;50.274;18.908;2022-12-07T11:53:10;13.20;;;8.00;;
61897;SDS011;47850;50.274;18.908;2022-12-07T12:03:44;12.40;;;7.90;;
61897;SDS011;47850;50.274;18.908;2022-12-07T12:06:12;12.20;;;7.20;;
61897;SDS011;47850;50.274;18.908;2022-12-07T12:08:39;11.20;;;7.10;;
61897;SDS011;47850;50.274;18.908;2022-12-07T12:11:16;16.80;;;8.00;;
61897;SDS011;47850;50.274;18.908;2022-12-07T12:21:41;10.50;;;6.20;;
61897;SDS011;47850;50.274;18.908;2022-12-07T12:24:18;13.50;;;6.70;;
61897;SDS011;47850;50.274;18.908;2022-12-07T12:26:52;11.50;;;6.20;;
61897;SDS011;47850;50.274;18.908;2022-12-07T12:29:38;12.90;;;5.70;;
61897;SDS011;47850;50.274;18.908;2022-12-07T12:32:07;13.60;;;6.90;;
61897;SDS011;47850;50.274;18.908;2022-12-07T12:37:38;9.60;;;4.80;;
61897;SDS011;47850;50.274;18.908;2022-12-07T12:42:43;9.20;;;5.50;;
61897;SDS011;47850;50.274;18.908;2022-12-07T12:45:20;10.10;;;5.90;;
61897;SDS011;47850;50.274;18.908;2022-12-07T12:47:53;9.20;;;5.80;;
61897;SDS011;47850;50.274;18.908;2022-12-07T12:50:25;8.70;;;5.00;;
61897;SDS011;47850;50.274;18.908;2022-12-07T12:53:03;8.40;;;4.80;;
61897;SDS011;47850;50.274;18.908;2022-12-07T12:58:40;7.10;;;4.60;;
61897;SDS011;47850;50.274;18.908;2022-12-07T13:04:00;7.20;;;4.40;;
61897;SDS011;47850;50.274;18.908;2022-12-07T13:08:53;8.90;;;3.80;;
61897;SDS011;47850;50.274;18.908;2022-12-07T13:11:32;6.00;;;3.10;;
61897;SDS011;47850;50.274;18.908;2022-12-07T13:17:11;7.00;;;3.50;;
61897;SDS011;47850;50.274;18.908;2022-12-07T13:20:39;13.50;;;5.10;;
61897;SDS011;47850;50.274;18.908;2022-12-07T13:31:39;17.90;;;8.20;;
61897;SDS011;47850;50.274;18.908;2022-12-07T13:36:56;14.10;;;5.50;;
61897;SDS011;47850;50.274;18.908;2022-12-07T13:39:23;9.30;;;4.40;;
61897;SDS011;47850;50.274;18.908;2022-12-07T13:41:54;11.60;;;5.10;;
61897;SDS011;47850;50.274;18.908;2022-12-07T13:44:27;10.40;;;5.80;;
61897;SDS011;47850;50.274;18.908;2022-12-07T13:47:01;8.70;;;5.00;;
61897;SDS011;47850;50.274;18.908;2022-12-07T13:49:36;7.70;;;4.20;;
61897;SDS011;47850;50.274;18.908;2022-12-07T13:52:23;6.50;;;3.10;;
61897;SDS011;47850;50.274;18.908;2022-12-07T13:57:31;7.00;;;3.60;;
61897;SDS011;47850;50.274;18.908;2022-12-07T14:00:01;8.00;;;3.40;;
61897;SDS011;47850;50.274;18.908;2022-12-07T14:02:29;10.80;;;5.00;;
61897;SDS011;47850;50.274;18.908;2022-12-07T14:07:57;11.60;;;5.90;;
61897;SDS011;47850;50.274;18.908;2022-12-07T14:12:54;16.00;;;6.80;;
61897;SDS011;47850;50.274;18.908;2022-12-07T14:15:22;17.10;;;7.10;;
61897;SDS011;47850;50.274;18.908;2022-12-07T14:17:54;13.70;;;6.00;;
61897;SDS011;47850;50.274;18.908;2022-12-07T14:22:59;16.10;;;7.20;;
61897;SDS011;47850;50.274;18.908;2022-12-07T14:25:44;10.70;;;4.90;;
61897;SDS011;47850;50.274;18.908;2022-12-07T14:28:28;13.50;;;6.40;;
61897;SDS011;47850;50.274;18.908;2022-12-07T14:30:56;19.50;;;9.10;;
61897;SDS011;47850;50.274;18.908;2022-12-07T14:33:22;14.20;;;7.40;;
61897;SDS011;47850;50.274;18.908;2022-12-07T14:35:49;21.70;;;10.10;;
61897;SDS011;47850;50.274;18.908;2022-12-07T14:38:14;24.10;;;11.80;;
61897;SDS011;47850;50.274;18.908;2022-12-07T14:40:40;31.20;;;15.40;;
61897;SDS011;47850;50.274;18.908;2022-12-07T14:43:08;27.70;;;13.40;;
61897;SDS011;47850;50.274;18.908;2022-12-07T14:45:38;38.30;;;15.10;;
61897;SDS011;47850;50.274;18.908;2022-12-07T14:48:05;33.10;;;16.30;;
61897;SDS011;47850;50.274;18.908;2022-12-07T14:50:31;35.40;;;15.70;;
61897;SDS011;47850;50.274;18.908;2022-12-07T14:53:03;30.90;;;13.90;;
61897;SDS011;47850;50.274;18.908;2022-12-07T14:55:47;28.30;;;13.50;;
61897;SDS011;47850;50.274;18.908;2022-12-07T14:58:13;40.40;;;16.50;;
61897;SDS011;47850;50.274;18.908;2022-12-07T15:00:40;24.30;;;10.80;;
61897;SDS011;47850;50.274;18.908;2022-12-07T15:03:05;28.30;;;13.40;;
61897;SDS011;47850;50.274;18.908;2022-12-07T15:05:31;20.60;;;9.70;;
61897;SDS011;47850;50.274;18.908;2022-12-07T15:07:56;23.20;;;9.20;;
61897;SDS011;47850;50.274;18.908;2022-12-07T15:10:26;23.10;;;11.00;;
61897;SDS011;47850;50.274;18.908;2022-12-07T15:12:58;24.20;;;11.50;;
61897;SDS011;47850;50.274;18.908;2022-12-07T15:18:14;17.80;;;9.20;;
61897;SDS011;47850;50.274;18.908;2022-12-07T15:20:40;25.90;;;11.00;;
61897;SDS011;47850;50.274;18.908;2022-12-07T15:23:05;25.20;;;9.50;;
61897;SDS011;47850;50.274;18.908;2022-12-07T15:25:31;21.20;;;10.20;;
61897;SDS011;47850;50.274;18.908;2022-12-07T15:27:57;19.00;;;8.10;;
61897;SDS011;47850;50.274;18.908;2022-12-07T15:30:22;23.20;;;12.30;;
61897;SDS011;47850;50.274;18.908;2022-12-07T15:32:51;19.90;;;9.40;;
61897;SDS011;47850;50.274;18.908;2022-12-07T15:35:17;17.00;;;6.80;;
61897;SDS011;47850;50.274;18.908;2022-12-07T15:37:44;20.70;;;10.50;;
61897;SDS011;47850;50.274;18.908;2022-12-07T15:40:09;21.10;;;8.50;;
61897;SDS011;47850;50.274;18.908;2022-12-07T15:42:36;13.30;;;7.30;;
61897;SDS011;47850;50.274;18.908;2022-12-07T15:45:02;14.50;;;7.60;;
61897;SDS011;47850;50.274;18.908;2022-12-07T15:47:37;14.70;;;7.90;;
61897;SDS011;47850;50.274;18.908;2022-12-07T15:50:05;11.80;;;5.70;;
61897;SDS011;47850;50.274;18.908;2022-12-07T15:52:33;15.50;;;7.20;;
61897;SDS011;47850;50.274;18.908;2022-12-07T15:54:59;10.80;;;5.30;;
61897;SDS011;47850;50.274;18.908;2022-12-07T15:57:25;13.00;;;7.30;;
61897;SDS011;47850;50.274;18.908;2022-12-07T15:59:51;17.30;;;8.40;;
61897;SDS011;47850;50.274;18.908;2022-12-07T16:02:17;19.30;;;8.70;;
61897;SDS011;47850;50.274;18.908;2022-12-07T16:04:42;21.10;;;9.90;;
61897;SDS011;47850;50.274;18.908;2022-12-07T16:07:08;19.40;;;9.40;;
61897;SDS011;47850;50.274;18.908;2022-12-07T16:09:33;20.20;;;9.50;;
61897;SDS011;47850;50.274;18.908;2022-12-07T16:11:59;19.70;;;9.70;;
61897;SDS011;47850;50.274;18.908;2022-12-07T16:14:24;21.40;;;10.40;;
61897;SDS011;47850;50.274;18.908;2022-12-07T16:16:50;16.50;;;7.80;;
61897;SDS011;47850;50.274;18.908;2022-12-07T16:19:15;15.80;;;7.90;;
61897;SDS011;47850;50.274;18.908;2022-12-07T16:21:41;19.80;;;9.00;;
61897;SDS011;47850;50.274;18.908;2022-12-07T16:24:07;16.50;;;7.40;;
61897;SDS011;47850;50.274;18.908;2022-12-07T16:26:33;14.20;;;6.80;;
61897;SDS011;47850;50.274;18.908;2022-12-07T16:28:59;6.10;;;3.60;;
61897;SDS011;47850;50.274;18.908;2022-12-07T16:31:26;13.70;;;6.70;;
61897;SDS011;47850;50.274;18.908;2022-12-07T16:33:53;10.40;;;5.10;;
61897;SDS011;47850;50.274;18.908;2022-12-07T16:36:20;12.70;;;6.50;;
61897;SDS011;47850;50.274;18.908;2022-12-07T16:38:47;15.10;;;7.30;;